Time;durP1;ratioP1;P1;durP2;ratioP2;P2;SDS_P1;SDS_P2;PMS_P1;PMS_P2;Temp;Humidity;BMP_temperature;BMP_pressure;BME280_temperature;BME280_humidity;BME280_pressure;Samples;Min_cycle;Max_cycle;Signal;HPM_P1;HPM_P2
2023/12/28 00:01:14;;;;;;;;;11.33;4.00;;;;;-144.24;100.00;114865.94;5094844;27;67059;-69
2023/12/28 00:03:41;;;;;;;;;6.00;6.00;;;;;-144.24;100.00;114865.94;5097686;27;63746;-70
2023/12/28 00:06:06;;;;;;;;;4.00;4.00;;;;;-144.24;100.00;114865.94;5079657;27;45791;-69
2023/12/28 00:08:32;;;;;;;;;6.00;5.00;;;;;-144.24;100.00;114865.94;5098247;27;45432;-69
2023/12/28 00:10:57;;;;;;;;;3.00;3.00;;;;;-144.24;100.00;114865.94;5099633;27;45563;-69
2023/12/28 00:13:23;;;;;;;;;4.33;4.33;;;;;-144.24;100.00;114865.94;5099920;27;45248;-69
2023/12/28 00:15:48;;;;;;;;;4.33;4.33;;;;;-144.24;100.00;114865.94;5098584;27;59941;-72
2023/12/28 00:18:13;;;;;;;;;6.00;6.00;;;;;-144.24;100.00;114865.94;5098768;27;68983;-72
2023/12/28 00:20:39;;;;;;;;;9.00;5.00;;;;;-144.24;100.00;114865.94;5099342;27;45361;-69
2023/12/28 00:23:05;;;;;;;;;8.33;5.00;;;;;-144.24;100.00;114865.94;5098388;27;64976;-70
2023/12/28 00:25:30;;;;;;;;;9.00;5.00;;;;;-144.24;100.00;114865.94;5099191;27;46643;-72
2023/12/28 00:27:56;;;;;;;;;3.33;3.33;;;;;-144.24;100.00;114865.94;5097827;27;70957;-70
2023/12/28 00:30:21;;;;;;;;;4.33;4.33;;;;;-144.24;100.00;114865.94;5099274;27;45434;-70
2023/12/28 00:32:46;;;;;;;;;5.00;5.00;;;;;-144.24;100.00;114865.94;5096302;27;51290;-71
2023/12/28 00:35:12;;;;;;;;;5.00;3.00;;;;;-144.24;100.00;114865.94;5098022;27;46387;-71
2023/12/28 00:37:37;;;;;;;;;4.33;4.33;;;;;-144.24;100.00;114865.94;5098504;27;54994;-72
2023/12/28 00:40:03;;;;;;;;;5.00;5.00;;;;;-144.24;100.00;114865.94;5097770;27;66310;-69
2023/12/28 00:42:28;;;;;;;;;5.67;3.67;;;;;-144.24;100.00;114865.94;5079073;27;45318;-70
2023/12/28 00:44:54;;;;;;;;;4.67;4.00;;;;;-144.24;100.00;114865.94;5098059;27;67564;-71
2023/12/28 00:47:19;;;;;;;;;6.67;6.33;;;;;-144.24;100.00;114865.94;5079418;27;72040;-70
2023/12/28 00:49:44;;;;;;;;;7.00;5.00;;;;;-144.24;100.00;114865.94;5097585;27;63421;-71
2023/12/28 00:52:10;;;;;;;;;5.00;4.00;;;;;-144.24;100.00;114865.94;5098808;27;45292;-70
2023/12/28 00:54:38;;;;;;;;;4.67;4.67;;;;;-144.24;100.00;114865.94;5094044;27;63878;-69
2023/12/28 00:57:04;;;;;;;;;4.67;4.67;;;;;-144.24;100.00;114865.94;5096768;27;62938;-69
2023/12/28 00:59:32;;;;;;;;;10.67;5.33;;;;;-144.24;100.00;114865.94;5096808;27;45349;-69
2023/12/28 01:01:57;;;;;;;;;6.67;4.00;;;;;-144.24;100.00;114865.94;5098575;27;45451;-69
2023/12/28 01:04:25;;;;;;;;;8.33;5.00;;;;;-144.24;100.00;114865.94;5097402;27;70395;-69
2023/12/28 01:06:51;;;;;;;;;6.00;5.00;;;;;-144.24;100.00;114865.94;5098590;27;45479;-71
2023/12/28 01:09:17;;;;;;;;;3.67;3.67;;;;;-144.24;100.00;114865.94;5098764;27;45467;-70
2023/12/28 01:11:42;;;;;;;;;4.00;4.00;;;;;-144.24;100.00;114865.94;5098944;27;45399;-69
2023/12/28 01:14:08;;;;;;;;;9.00;5.00;;;;;-144.24;100.00;114865.94;5097197;27;58652;-69
2023/12/28 01:16:33;;;;;;;;;5.00;5.00;;;;;-144.24;100.00;114865.94;5093550;27;45341;-69
2023/12/28 01:18:58;;;;;;;;;7.33;4.00;;;;;-144.24;100.00;114865.94;5079867;27;45727;-72
2023/12/28 01:21:28;;;;;;;;;3.00;3.00;;;;;-144.24;100.00;114865.94;5097492;27;60323;-69
2023/12/28 01:23:54;;;;;;;;;5.67;2.67;;;;;-144.24;100.00;114865.94;5097546;27;46513;-69
2023/12/28 01:26:19;;;;;;;;;4.67;3.67;;;;;-144.24;100.00;114865.94;5096214;27;45359;-69
2023/12/28 01:28:45;;;;;;;;;4.00;4.00;;;;;-144.24;100.00;114865.94;5098206;27;45336;-69
2023/12/28 01:31:10;;;;;;;;;5.33;3.67;;;;;-144.24;100.00;114865.94;5097434;27;58688;-70
2023/12/28 01:33:35;;;;;;;;;4.00;4.00;;;;;-144.24;100.00;114865.94;5097119;27;68917;-69
2023/12/28 01:36:01;;;;;;;;;5.00;3.00;;;;;-144.24;100.00;114865.94;5096329;27;45301;-70
2023/12/28 01:38:27;;;;;;;;;4.00;4.00;;;;;-144.24;100.00;114865.94;5098192;27;45469;-71
2023/12/28 01:40:52;;;;;;;;;4.00;3.00;;;;;-144.24;100.00;114865.94;5097671;27;45483;-71
2023/12/28 01:43:17;;;;;;;;;5.00;4.00;;;;;-144.24;100.00;114865.94;5097291;27;46116;-69
2023/12/28 01:45:43;;;;;;;;;5.00;5.00;;;;;-144.24;100.00;114865.94;5086423;27;69541;-69
2023/12/28 01:48:08;;;;;;;;;5.00;4.00;;;;;-144.24;100.00;114865.94;5097696;27;45418;-70
2023/12/28 01:50:34;;;;;;;;;5.00;4.00;;;;;-144.24;100.00;114865.94;5079173;27;45599;-69
2023/12/28 01:53:00;;;;;;;;;5.00;5.00;;;;;-144.24;100.00;114865.94;5079369;27;46051;-71
2023/12/28 01:55:27;;;;;;;;;4.00;4.00;;;;;-144.24;100.00;114865.94;5076289;27;45500;-70
2023/12/28 01:57:53;;;;;;;;;5.00;4.00;;;;;-144.24;100.00;114865.94;5095928;27;56468;-69
2023/12/28 02:00:19;;;;;;;;;6.00;5.00;;;;;-144.24;100.00;114865.94;5097912;27;45391;-69
2023/12/28 02:02:44;;;;;;;;;5.67;4.00;;;;;-144.24;100.00;114865.94;5096807;27;46638;-71
2023/12/28 02:05:13;;;;;;;;;4.00;4.00;;;;;-144.24;100.00;114865.94;5076602;27;70948;-70
2023/12/28 02:07:38;;;;;;;;;8.00;4.00;;;;;-144.24;100.00;114865.94;5097753;27;45400;-69
2023/12/28 02:10:04;;;;;;;;;5.67;5.00;;;;;-144.24;100.00;114865.94;5097537;27;46460;-71
2023/12/28 02:12:29;;;;;;;;;5.33;4.33;;;;;-144.24;100.00;114865.94;5095531;27;46296;-70
2023/12/28 02:14:54;;;;;;;;;4.33;4.33;;;;;-144.24;100.00;114865.94;5091600;27;64758;-69
2023/12/28 02:17:24;;;;;;;;;5.33;5.00;;;;;-144.24;100.00;114839.44;5096620;27;58201;-72
2023/12/28 02:19:50;;;;;;;;;6.33;4.67;;;;;-144.24;100.00;114788.50;5095736;27;45407;-72
2023/12/28 02:22:16;;;;;;;;;5.67;3.67;;;;;-144.24;100.00;114737.56;5078268;27;46442;-69
2023/12/28 02:25:02;;;;;;;;;4.67;4.67;;;;;-144.24;100.00;114743.69;5096151;27;45381;-70
2023/12/28 02:27:28;;;;;;;;;9.00;3.00;;;;;-144.24;100.00;114739.59;5097558;27;45394;-71
2023/12/28 02:29:55;;;;;;;;;4.00;4.00;;;;;-144.24;100.00;114662.19;5077806;27;65222;-69
2023/12/28 02:32:38;;;;;;;;;6.00;3.00;;;;;-144.24;100.00;114762.03;5096890;27;45856;-69
2023/12/28 02:35:13;;;;;;;;;4.00;3.00;;;;;-144.24;100.00;114698.84;5076482;27;45546;-69
2023/12/28 02:37:38;;;;;;;;;10.00;3.33;;;;;-144.24;100.00;114672.38;5078493;27;45298;-69
2023/12/28 02:40:04;;;;;;;;;5.33;2.33;;;;;-144.24;100.00;114641.81;5090881;27;64690;-69
2023/12/28 02:42:30;;;;;;;;;4.00;3.00;;;;;-144.24;100.00;114613.28;5189558;22;45492;-70
2023/12/28 02:44:55;;;;;;;;;4.33;3.33;;;;;-144.24;100.00;114562.34;5057597;28;65988;-70
2023/12/28 02:47:20;;;;;;;;;7.33;4.00;;;;;-144.24;100.00;114554.19;5075440;28;67881;-70
2023/12/28 02:49:46;;;;;;;;;5.00;3.67;;;;;-144.24;100.00;114623.47;5076630;28;45709;-69
2023/12/28 02:52:11;;;;;;;;;4.00;4.00;;;;;-144.24;100.00;114493.06;5075594;28;70303;-69
2023/12/28 02:54:36;;;;;;;;;3.33;3.33;;;;;-144.24;100.00;114544.00;5075310;28;67325;-69
2023/12/28 02:57:02;;;;;;;;;5.00;3.00;;;;;-144.24;100.00;114401.38;5074872;28;66113;-69
2023/12/28 02:59:27;;;;;;;;;4.00;4.00;;;;;-144.24;100.00;114348.41;5075325;28;65311;-71
2023/12/28 03:01:52;;;;;;;;;3.00;3.00;;;;;-144.24;100.00;114211.91;5075300;28;66062;-69
2023/12/28 03:04:17;;;;;;;;;2.00;2.00;;;;;-144.24;100.00;114167.09;5075725;28;68244;-70
2023/12/28 03:06:46;;;;;;;;;4.00;3.00;;;;;-144.24;100.00;114030.59;5075250;28;67852;-69
2023/12/28 03:09:11;;;;;;;;;3.33;3.00;;;;;-144.24;100.00;114028.56;5076410;28;45482;-69
2023/12/28 03:11:36;;;;;;;;;5.00;2.00;;;;;-144.24;100.00;113934.84;5075133;28;59452;-69
2023/12/28 03:14:02;;;;;;;;;3.00;3.00;;;;;-144.24;100.00;113847.25;5075096;28;67673;-69
2023/12/28 03:16:27;;;;;;;;;4.00;2.00;;;;;-144.24;100.00;113716.91;5075133;28;61467;-69
2023/12/28 03:18:52;;;;;;;;;5.00;3.00;;;;;-144.24;100.00;113792.25;5075413;28;57176;-69
2023/12/28 03:21:18;;;;;;;;;2.67;2.67;;;;;-144.24;100.00;113684.31;5074673;28;70895;-70
2023/12/28 03:23:43;;;;;;;;;3.00;3.00;;;;;-144.24;100.00;113625.22;5075218;28;71761;-68
2023/12/28 03:26:08;;;;;;;;;4.33;4.33;;;;;-144.24;100.00;113450.06;5075759;28;45527;-68
2023/12/28 03:28:34;;;;;;;;;3.00;3.00;;;;;-144.24;100.00;113401.16;5075685;28;54884;-71
2023/12/28 03:31:02;;;;;;;;;3.00;3.00;;;;;-144.24;100.00;113405.25;5074636;28;71402;-69
2023/12/28 03:33:27;;;;;;;;;4.00;3.00;;;;;-144.24;100.00;113437.84;5074783;28;46103;-71
2023/12/28 03:35:52;;;;;;;;;3.67;2.00;;;;;-144.24;100.00;113321.72;5075475;28;45522;-69
2023/12/28 03:38:18;;;;;;;;;6.00;4.00;;;;;-144.24;100.00;113183.22;5077654;28;45507;-70
2023/12/28 03:40:46;;;;;;;;;4.00;2.33;;;;;-144.24;100.00;113156.75;5078156;28;70654;-69
2023/12/28 03:43:12;;;;;;;;;4.00;4.00;;;;;-144.24;100.00;113052.88;5078365;28;45459;-69
2023/12/28 03:45:38;;;;;;;;;4.67;3.33;;;;;-144.24;100.00;112926.59;5078431;28;45449;-69
2023/12/28 03:48:03;;;;;;;;;4.00;3.33;;;;;-144.24;100.00;112959.19;5078548;28;45697;-70
2023/12/28 03:50:29;;;;;;;;;7.00;4.00;;;;;-144.24;100.00;112786.09;5078645;28;46449;-69
2023/12/28 03:52:54;;;;;;;;;4.00;3.00;;;;;-144.24;100.00;112661.84;5078515;28;49067;-68
2023/12/28 03:55:19;;;;;;;;;6.00;4.00;;;;;-144.24;100.00;112564.09;5079240;28;45446;-69
2023/12/28 03:57:46;;;;;;;;;3.67;3.00;;;;;-144.24;100.00;112219.97;5075110;28;60011;-70
2023/12/28 04:00:12;;;;;;;;;3.00;3.00;;;;;-144.24;100.00;112213.84;5078667;28;46414;-69
2023/12/28 04:02:37;;;;;;;;;3.67;3.00;;;;;-144.24;100.00;112099.81;5078539;28;45449;-69
2023/12/28 04:05:04;;;;;;;;;3.00;3.00;;;;;-144.24;100.00;111908.44;5077875;28;66720;-69
2023/12/28 04:07:29;;;;;;;;;4.00;4.00;;;;;-144.24;100.00;111780.16;5079160;28;45376;-69
2023/12/28 04:09:56;;;;;;;;;5.00;5.00;;;;;-144.24;100.00;111737.41;5077866;28;69930;-71
2023/12/28 04:12:21;;;;;;;;;5.67;3.67;;;;;-144.24;100.00;111635.59;5078753;28;45337;-68
2023/12/28 04:14:46;;;;;;;;;4.33;3.00;;;;;-144.24;100.00;111466.63;5078447;27;45285;-70
2023/12/28 04:17:12;;;;;;;;;5.00;3.67;;;;;-144.24;100.00;111303.75;5077986;28;63163;-68
2023/12/28 04:19:37;;;;;;;;;3.00;3.00;;;;;-144.24;100.00;111267.09;5078700;28;45541;-69
2023/12/28 04:22:02;;;;;;;;;3.33;3.33;;;;;-144.24;100.00;111039.09;5078024;28;69020;-69
2023/12/28 04:24:28;;;;;;;;;6.00;3.33;;;;;-144.24;100.00;110882.34;5078249;28;45912;-68
2023/12/28 04:26:53;;;;;;;;;4.67;3.00;;;;;-144.24;100.00;110827.41;5078927;28;45156;-69
2023/12/28 04:29:18;;;;;;;;;5.00;4.00;;;;;-144.24;100.00;110711.38;5077284;28;69463;-70
2023/12/28 04:31:44;;;;;;;;;3.00;2.00;;;;;-144.24;100.00;110650.31;5078455;28;45436;-70
2023/12/28 04:34:09;;;;;;;;;2.00;2.00;;;;;-144.24;100.00;110357.19;5060008;28;45300;-70
2023/12/28 04:36:45;;;;;;;;;6.00;3.00;;;;;-144.24;100.00;110422.34;5077817;28;45180;-69
2023/12/28 04:39:10;;;;;;;;;2.00;2.00;;;;;-144.24;100.00;109972.53;5078196;27;47346;-69
2023/12/28 04:41:35;;;;;;;;;3.00;3.00;;;;;-144.24;100.00;109661.19;5078193;28;45333;-69
2023/12/28 04:44:00;;;;;;;;;2.33;2.00;;;;;-144.24;100.00;109742.56;5076317;28;68163;-70
2023/12/28 04:46:26;;;;;;;;;6.33;2.33;;;;;-144.24;100.00;109543.16;5076148;28;66506;-69
2023/12/28 04:48:51;;;;;;;;;2.33;2.33;;;;;-144.24;100.00;109467.84;5069908;28;70135;-70
2023/12/28 04:51:17;;;;;;;;;4.33;2.00;;;;;-144.24;100.00;109414.94;5076590;28;70735;-69
2023/12/28 04:53:42;;;;;;;;;2.67;2.67;;;;;-144.24;100.00;109209.44;5071322;28;45357;-70
2023/12/28 04:56:07;;;;;;;;;2.00;2.00;;;;;-144.24;100.00;109189.09;5078243;28;45622;-68
2023/12/28 04:58:32;;;;;;;;;3.33;2.00;;;;;-144.24;100.00;109154.50;5060118;28;74290;-69
2023/12/28 05:00:58;;;;;;;;;3.00;3.00;;;;;-144.24;100.00;108837.09;5076812;28;67345;-68
2023/12/28 05:03:23;;;;;;;;;1.67;1.67;;;;;-144.24;100.00;108881.84;5078467;28;45385;-68
2023/12/28 05:05:48;;;;;;;;;3.33;2.33;;;;;-144.24;100.00;108841.16;5077402;28;64417;-69
2023/12/28 05:08:14;;;;;;;;;2.33;2.33;;;;;-144.24;100.00;108774.00;5077074;28;72904;-68
2023/12/28 05:10:39;;;;;;;;;5.67;4.67;;;;;-144.24;100.00;108599.06;5077421;28;69842;-70
2023/12/28 05:13:04;;;;;;;;;1.67;1.67;;;;;-144.24;100.00;108621.44;5077741;28;63636;-69
2023/12/28 05:15:30;;;;;;;;;3.00;2.00;;;;;-144.24;100.00;108651.94;5077299;28;63600;-69
2023/12/28 05:17:55;;;;;;;;;4.00;2.33;;;;;-144.24;100.00;108470.88;5069557;28;70245;-69
2023/12/28 05:20:20;;;;;;;;;7.00;3.33;;;;;-144.24;100.00;108369.16;5077265;28;66665;-70
2023/12/28 05:22:46;;;;;;;;;8.00;4.00;;;;;-144.24;100.00;108293.88;5078358;28;45815;-71
2023/12/28 05:25:12;;;;;;;;;6.33;3.67;;;;;-144.24;100.00;108413.91;5078482;28;45317;-69
2023/12/28 05:27:37;;;;;;;;;5.33;2.00;;;;;-144.24;100.00;108277.63;5077677;28;46163;-68
2023/12/28 05:30:03;;;;;;;;;3.33;3.00;;;;;-144.24;100.00;108224.72;5077853;28;45292;-70
2023/12/28 05:32:28;;;;;;;;;2.67;2.67;;;;;-144.24;100.00;108114.88;5077717;28;45429;-70
2023/12/28 05:34:53;;;;;;;;;4.67;3.67;;;;;-144.24;100.00;108297.97;5075584;28;62825;-69
2023/12/28 05:37:19;;;;;;;;;8.33;2.67;;;;;-144.24;100.00;108059.94;5076550;28;71673;-70
2023/12/28 05:39:44;;;;;;;;;4.33;2.67;;;;;-144.24;100.00;108188.09;5075111;28;45440;-70
2023/12/28 05:42:10;;;;;;;;;2.00;2.00;;;;;-144.24;100.00;108112.84;5076003;28;67153;-69
2023/12/28 05:44:35;;;;;;;;;6.00;3.67;;;;;-144.24;100.00;108080.28;5076467;28;65017;-69
2023/12/28 05:47:00;;;;;;;;;3.00;3.00;;;;;-144.24;100.00;107819.94;5077391;28;46313;-70
2023/12/28 05:49:28;;;;;;;;;5.67;4.00;;;;;-144.24;100.00;107952.13;5077571;28;45568;-69
2023/12/28 05:51:53;;;;;;;;;2.00;2.00;;;;;-144.24;100.00;107850.44;5077569;28;45337;-71
2023/12/28 05:54:19;;;;;;;;;4.67;2.33;;;;;-144.24;100.00;107732.47;5077165;28;57318;-68
2023/12/28 05:56:44;;;;;;;;;2.00;2.00;;;;;-144.24;100.00;107663.31;5077295;28;46048;-68
2023/12/28 05:59:10;;;;;;;;;5.00;3.00;;;;;-144.24;100.00;107463.97;5076285;28;70429;-71
2023/12/28 06:01:43;;;;;;;;;5.33;2.00;;;;;-144.24;100.00;107272.78;5074751;28;65392;-68
2023/12/28 06:04:08;;;;;;;;;3.33;3.33;;;;;-144.24;100.00;107110.09;5077686;28;45507;-69
2023/12/28 06:06:34;;;;;;;;;3.67;2.00;;;;;-144.24;100.00;107008.41;5077076;28;46318;-68
2023/12/28 06:08:59;;;;;;;;;4.00;3.00;;;;;-144.24;100.00;106896.56;5076536;28;45247;-68
2023/12/28 06:11:24;;;;;;;;;4.00;3.00;;;;;-144.24;100.00;106825.38;5076780;28;60326;-69
2023/12/28 06:13:50;;;;;;;;;3.33;3.33;;;;;-144.24;100.00;106502.06;5076731;28;46112;-69
2023/12/28 06:16:15;;;;;;;;;2.00;2.00;;;;;-144.24;100.00;106599.66;5076654;28;66634;-68
2023/12/28 06:18:40;;;;;;;;;6.33;2.00;;;;;-144.24;100.00;106550.88;5076220;28;63921;-69
2023/12/28 06:21:08;;;;;;;;;5.00;3.67;;;;;-144.24;100.00;106211.28;5077063;28;45419;-70
2023/12/28 06:23:33;;;;;;;;;5.67;2.67;;;;;-144.24;100.00;106180.78;5077447;28;45547;-70
2023/12/28 06:26:04;;;;;;;;;5.00;2.33;;;;;-144.24;100.00;106213.31;5076777;28;47462;-71
2023/12/28 06:28:29;;;;;;;;;2.00;2.00;;;;;-144.24;100.00;106030.34;5077277;28;45452;-70
2023/12/28 06:30:55;;;;;;;;;2.00;2.00;;;;;-144.24;100.00;105888.03;5075503;28;65914;-70
2023/12/28 06:33:20;;;;;;;;;5.00;2.00;;;;;-144.24;100.00;105859.56;5076017;28;66100;-70
2023/12/28 06:35:45;;;;;;;;;6.00;3.00;;;;;-144.24;100.00;105621.69;5075032;28;46220;-72
2023/12/28 06:38:11;;;;;;;;;6.00;2.00;;;;;-144.24;100.00;105792.47;5075725;28;67747;-72
2023/12/28 06:40:36;;;;;;;;;9.67;2.33;;;;;-144.24;100.00;105497.69;5075507;28;66956;-70
2023/12/28 06:43:01;;;;;;;;;5.00;3.00;;;;;-144.24;100.00;105355.38;5074857;28;63586;-71
2023/12/28 06:45:27;;;;;;;;;1.33;1.33;;;;;-144.24;100.00;105206.97;5076244;28;47035;-70
2023/12/28 06:47:53;;;;;;;;;2.67;2.67;;;;;-144.24;100.00;104946.81;5076129;28;45480;-70
2023/12/28 06:50:18;;;;;;;;;8.33;3.00;;;;;-144.24;100.00;104967.13;5076777;28;45584;-70
2023/12/28 06:52:43;;;;;;;;;2.67;2.00;;;;;-144.24;100.00;104922.41;5075450;28;66300;-69
2023/12/28 06:55:09;;;;;;;;;5.00;2.00;;;;;-144.24;100.00;104747.59;5075743;28;72876;-72
2023/12/28 06:57:34;;;;;;;;;2.67;1.67;;;;;-144.24;100.00;104713.06;5076574;28;45293;-70
2023/12/28 07:00:02;;;;;;;;;4.33;2.00;;;;;-144.24;100.00;104499.66;5075953;28;65986;-71
2023/12/28 07:02:27;;;;;;;;;3.00;2.00;;;;;-144.24;100.00;104477.28;5076566;28;45332;-69
2023/12/28 07:04:52;;;;;;;;;3.67;2.00;;;;;-144.24;100.00;104261.84;5075391;28;68046;-70
2023/12/28 07:07:18;;;;;;;;;7.67;2.00;;;;;-144.24;100.00;104028.16;5076090;28;45408;-71
2023/12/28 07:09:43;;;;;;;;;6.00;2.00;;;;;-144.24;100.00;103946.88;5074862;28;45508;-69
2023/12/28 07:12:08;;;;;;;;;3.33;3.33;;;;;-144.24;100.00;103786.31;5076719;28;55706;-70
2023/12/28 07:14:36;;;;;;;;;8.33;4.67;;;;;-144.24;100.00;103609.53;5077400;28;47414;-70
2023/12/28 07:17:01;;;;;;;;;2.67;2.67;;;;;-144.24;100.00;103749.75;5075142;28;45471;-70
2023/12/28 07:19:26;;;;;;;;;6.33;3.00;;;;;-144.24;100.00;103581.09;5078897;28;45487;-69
2023/12/28 07:21:52;;;;;;;;;6.33;4.67;;;;;-144.24;100.00;103465.28;5079160;28;45400;-70
2023/12/28 07:24:17;;;;;;;;;9.00;3.00;;;;;-144.24;100.00;103323.03;5078487;28;69406;-71
2023/12/28 07:26:42;;;;;;;;;5.00;4.00;;;;;-144.24;100.00;103180.81;5079350;28;45463;-69
2023/12/28 07:29:08;;;;;;;;;10.00;2.33;;;;;-144.24;100.00;103026.41;5078938;28;45343;-71
2023/12/28 07:31:33;;;;;;;;;5.33;3.00;;;;;-144.24;100.00;102829.34;5070318;28;64186;-71
2023/12/28 07:33:58;;;;;;;;;3.67;3.00;;;;;-144.24;100.00;102666.81;5071075;28;71558;-69
2023/12/28 07:36:24;;;;;;;;;9.67;3.00;;;;;-144.24;100.00;102386.50;5072205;28;60991;-70
2023/12/28 07:38:49;;;;;;;;;1.00;1.00;;;;;-144.24;100.00;101968.06;5067563;28;45348;-69
2023/12/28 07:41:15;;;;;;;;;5.67;5.00;;;;;-144.24;100.00;101974.16;5062128;28;66749;-71
2023/12/28 07:43:40;;;;;;;;;6.33;3.00;;;;;-144.24;100.00;101829.94;5044060;28;46327;-70
2023/12/28 07:46:06;;;;;;;;;8.67;3.00;;;;;-144.24;100.00;101498.88;5077131;28;47099;-70
2023/12/28 07:48:31;;;;;;;;;9.00;3.67;;;;;-144.24;100.00;101527.31;5063848;28;59854;-69
2023/12/28 07:50:57;;;;;;;;;6.67;3.33;;;;;-144.24;100.00;101206.44;5079411;28;45626;-70
2023/12/28 07:53:23;;;;;;;;;9.00;4.00;;;;;-144.24;100.00;100956.66;5078943;28;47513;-72
2023/12/28 07:55:48;;;;;;;;;5.00;3.33;;;;;-144.24;100.00;100901.84;5079599;28;45258;-72
2023/12/28 07:58:14;;;;;;;;;5.00;4.00;;;;;-144.24;100.00;100702.84;5078023;28;63571;-70
2023/12/28 08:00:40;;;;;;;;;4.00;4.00;;;;;-144.24;100.00;100593.19;5079296;28;45568;-72
2023/12/28 08:03:05;;;;;;;;;5.33;4.00;;;;;-144.24;100.00;100280.53;5078286;28;47511;-72
2023/12/28 08:05:30;;;;;;;;;4.00;1.67;;;;;-144.24;100.00;100061.25;5078153;28;67024;-72
2023/12/28 08:07:56;;;;;;;;;4.33;3.33;;;;;-144.24;100.00;100020.66;5078366;28;66397;-71
2023/12/28 08:10:21;;;;;;;;;7.33;3.67;;;;;-144.24;100.00;99718.16;5078050;28;64203;-71
2023/12/28 08:12:46;;;;;;;;;5.00;3.00;;;;;-144.24;100.00;99681.63;5072506;28;47120;-72
2023/12/28 08:15:12;;;;;;;;;15.00;5.00;;;;;-144.24;100.00;99600.44;5077510;28;69521;-71
2023/12/28 08:17:37;;;;;;;;;3.00;3.00;;;;;-144.24;100.00;99273.63;5078981;28;47773;-71
2023/12/28 08:20:04;;;;;;;;;7.33;4.00;;;;;-144.24;100.00;98879.84;5079001;28;45539;-72
2023/12/28 08:22:29;;;;;;;;;9.00;2.00;;;;;-144.24;100.00;98727.63;5078294;28;46560;-70
2023/12/28 08:24:54;;;;;;;;;8.67;3.67;;;;;-144.24;100.00;98784.47;5077370;28;63528;-73
2023/12/28 08:27:20;;;;;;;;;6.33;3.00;;;;;-144.24;100.00;98238.56;5068993;28;66629;-71
2023/12/28 08:29:45;;;;;;;;;4.00;2.67;;;;;-144.24;100.00;97745.47;5059923;28;63197;-71
2023/12/28 08:32:11;;;;;;;;;3.33;3.00;;;;;-144.24;100.00;96518.09;5069140;28;45554;-72
2023/12/28 08:34:37;;;;;;;;;4.67;3.00;;;;;-144.24;100.00;96520.13;5076442;28;58189;-72
2023/12/28 08:37:03;;;;;;;;;6.67;3.33;;;;;-144.24;100.00;96264.56;5078555;28;45230;-72
2023/12/28 08:39:28;;;;;;;;;3.67;3.00;;;;;-144.24;100.00;95970.47;5078111;28;45400;-72
2023/12/28 08:41:53;;;;;;;;;8.33;3.67;;;;;-144.24;100.00;95579.06;5077045;28;65864;-71
2023/12/28 08:44:18;;;;;;;;;4.00;3.00;;;;;-144.24;100.00;95323.53;5077856;28;57150;-71
2023/12/28 08:46:44;;;;;;;;;9.67;3.00;;;;;-144.24;100.00;95372.22;5077930;28;45549;-72
2023/12/28 08:49:09;;;;;;;;;5.67;2.00;;;;;-144.24;100.00;97211.88;5077204;28;64741;-71
2023/12/28 08:51:35;;;;;;;;;6.67;3.33;;;;;-144.24;100.00;97086.09;5058929;28;76225;-72
2023/12/28 08:54:00;;;;;;;;;3.67;0.00;;;;;-144.24;100.00;97033.34;5078338;28;45525;-70
2023/12/28 08:56:26;;;;;;;;;2.67;2.67;;;;;-144.24;100.00;96806.16;5078396;28;45394;-71
2023/12/28 08:58:52;;;;;;;;;3.67;3.33;;;;;-144.24;100.00;96572.88;5077511;28;62280;-71
2023/12/28 09:01:29;;;;;;;;;6.00;3.00;;;;;-144.24;100.00;96509.97;5077863;28;46567;-71
2023/12/28 09:03:55;;;;;;;;;4.67;1.67;;;;;-144.24;100.00;96244.28;5065079;28;45619;-70
2023/12/28 09:06:20;;;;;;;;;6.33;2.33;;;;;-144.24;100.00;95877.16;5077212;28;45495;-71
2023/12/28 09:08:48;;;;;;;;;2.00;2.00;;;;;-144.24;100.00;95798.06;5078081;27;45559;-70
2023/12/28 09:11:14;;;;;;;;;10.33;2.00;;;;;-144.24;100.00;95566.88;5077900;28;45430;-71
2023/12/28 09:13:41;;;;;;;;;4.00;2.00;;;;;-144.24;100.00;95258.66;5067600;28;45381;-71
2023/12/28 09:16:09;;;;;;;;;2.00;2.00;;;;;-144.24;100.00;95307.31;5077425;28;45329;-71
2023/12/28 09:18:37;;;;;;;;;3.33;1.67;;;;;-144.24;100.00;95234.31;5076530;28;45428;-71
2023/12/28 09:21:02;;;;;;;;;2.33;2.33;;;;;-144.24;100.00;94883.53;5077522;28;45535;-71
2023/12/28 09:23:28;;;;;;;;;2.00;2.00;;;;;-144.24;100.00;94672.66;5074924;28;45517;-71
2023/12/28 09:25:53;;;;;;;;;3.00;1.00;;;;;-144.24;100.00;94652.38;5077311;28;56853;-71
2023/12/28 09:28:18;;;;;;;;;2.00;2.00;;;;;-144.24;100.00;94380.72;5073341;28;45266;-72
2023/12/28 09:30:44;;;;;;;;;3.67;2.33;;;;;-144.24;100.00;94224.59;5075601;28;72181;-70
2023/12/28 09:33:09;;;;;;;;;3.00;1.67;;;;;-144.24;100.00;94060.41;5076766;27;45502;-70
2023/12/28 09:35:35;;;;;;;;;2.00;1.33;;;;;-144.24;100.00;94007.69;5070589;28;45431;-71
2023/12/28 09:38:01;;;;;;;;;2.00;2.00;;;;;-144.24;100.00;94058.38;5071926;28;45490;-71
2023/12/28 09:40:26;;;;;;;;;3.00;2.00;;;;;-144.24;100.00;93865.81;5076784;28;45599;-71
2023/12/28 09:43:16;;;;;;;;;3.00;2.00;;;;;-144.24;100.00;94025.94;5071465;28;72397;-71
2023/12/28 09:45:42;;;;;;;;;4.00;4.00;;;;;-144.24;100.00;93839.44;5043058;28;46404;-70
2023/12/28 09:48:07;;;;;;;;;5.67;3.00;;;;;-144.24;100.00;93715.81;5077430;28;45585;-71
2023/12/28 09:50:33;;;;;;;;;3.00;3.00;;;;;-144.24;100.00;93472.56;5072325;28;46092;-72
2023/12/28 09:52:58;;;;;;;;;4.00;3.00;;;;;-144.24;100.00;93707.69;5063683;28;45520;-71
2023/12/28 09:55:25;;;;;;;;;2.67;2.67;;;;;-144.24;100.00;93470.53;5063188;28;45560;-69
2023/12/28 09:57:51;;;;;;;;;3.00;3.00;;;;;-144.24;100.00;93537.44;5043710;28;45562;-72
2023/12/28 10:00:17;;;;;;;;;6.00;4.00;;;;;-144.24;100.00;93383.38;5065104;28;46569;-70
2023/12/28 10:02:44;;;;;;;;;6.67;4.00;;;;;-144.24;100.00;93334.75;5054357;28;45498;-70
2023/12/28 10:05:14;;;;;;;;;5.00;2.00;;;;;-144.24;100.00;93717.81;5074056;27;45545;-70
2023/12/28 10:07:47;;;;;;;;;4.00;3.00;;;;;-144.24;100.00;93557.69;5074587;28;45452;-71
2023/12/28 10:10:12;;;;;;;;;5.33;3.00;;;;;-144.24;100.00;93604.31;5072644;28;46510;-71
2023/12/28 10:12:37;;;;;;;;;8.33;3.33;;;;;-144.24;100.00;93543.50;5076812;28;45421;-71
2023/12/28 10:15:05;;;;;;;;;4.67;3.33;;;;;-144.24;100.00;93665.13;5075015;28;69716;-70
2023/12/28 10:17:34;;;;;;;;;3.33;3.00;;;;;-144.24;100.00;93900.25;5070309;28;45870;-71
2023/12/28 10:20:04;;;;;;;;;5.00;3.67;;;;;-144.24;100.00;93813.09;5073193;28;47571;-72
2023/12/28 10:22:30;;;;;;;;;5.00;3.33;;;;;-144.24;100.00;94115.13;5076207;28;45329;-71
2023/12/28 10:24:56;;;;;;;;;3.33;2.67;;;;;-144.24;100.00;94060.41;5076323;28;45320;-70
2023/12/28 10:27:21;;;;;;;;;4.00;2.00;;;;;-144.24;100.00;94027.97;5076224;28;45585;-73
2023/12/28 10:29:46;;;;;;;;;3.00;3.00;;;;;-144.24;100.00;93948.91;5058642;28;66945;-73
2023/12/28 10:32:12;;;;;;;;;3.33;2.33;;;;;-144.24;100.00;93861.75;5075818;28;54901;-71
2023/12/28 10:34:37;;;;;;;;;2.00;2.00;;;;;-144.24;100.00;93888.09;5075563;28;56187;-71
2023/12/28 10:37:03;;;;;;;;;3.00;3.00;;;;;-144.24;100.00;93967.16;5057605;28;61686;-71
2023/12/28 10:39:32;;;;;;;;;6.00;3.00;;;;;-144.24;100.00;94068.50;5058527;28;46489;-71
2023/12/28 10:41:59;;;;;;;;;5.00;3.00;;;;;-144.24;100.00;94040.13;5076283;28;45420;-71
2023/12/28 10:44:27;;;;;;;;;3.00;3.00;;;;;-144.24;100.00;93880.00;5055419;28;45366;-71
2023/12/28 10:46:57;;;;;;;;;3.00;3.00;;;;;-144.24;100.00;93835.41;5049177;28;45568;-71
2023/12/28 10:49:24;;;;;;;;;7.00;4.00;;;;;-144.24;100.00;94218.53;5060534;28;46685;-71
2023/12/28 10:51:52;;;;;;;;;9.33;3.00;;;;;-144.24;100.00;94516.56;5060588;28;45445;-73
2023/12/28 10:54:56;;;;;;;;;4.67;3.00;;;;;-144.24;100.00;94838.91;5059544;28;45349;-72
2023/12/28 10:57:32;;;;;;;;;2.67;2.67;;;;;-144.24;100.00;95467.50;5043190;28;45500;-72
2023/12/28 11:00:10;;;;;;;;;1.33;1.33;;;;;-144.24;100.00;95546.59;5065966;28;47493;-72